Time;durP1;ratioP1;P1;durP2;ratioP2;P2;SDS_P1;SDS_P2;PMS_P1;PMS_P2;Temp;Humidity;BMP_temperature;BMP_pressure;BME280_temperature;BME280_humidity;BME280_pressure;Samples;Min_cycle;Max_cycle;Signal;HPM_P1;HPM_P2
2023/03/23 00:01:53;;;;;;;1.08;0.63;;;;;;;20.36;47.90;100210.63;5066544;27;96744;-75
2023/03/23 00:04:18;;;;;;;1.52;0.70;;;;;;;20.36;47.62;100205.19;5038167;27;97100;-75
2023/03/23 00:06:45;;;;;;;1.20;0.73;;;;;;;20.36;47.97;100200.56;5033469;27;96802;-75
2023/03/23 00:09:12;;;;;;;1.55;0.60;;;;;;;20.36;47.83;100197.84;5035439;27;97595;-75
2023/03/23 00:11:38;;;;;;;1.13;0.60;;;;;;;20.37;47.87;100188.63;5051651;27;97659;-75
2023/03/23 00:14:04;;;;;;;1.42;0.73;;;;;;;20.38;47.70;100203.13;5052213;27;97150;-75
2023/03/23 00:16:32;;;;;;;1.15;0.80;;;;;;;20.36;47.81;100216.94;5049085;27;96782;-75
2023/03/23 00:19:07;;;;;;;1.92;0.65;;;;;;;20.36;47.90;100214.22;5018061;27;98896;-75
2023/03/23 00:21:38;;;;;;;1.65;0.88;;;;;;;20.39;47.55;100205.69;5064735;27;96927;-75
2023/03/23 00:24:08;;;;;;;1.83;0.70;;;;;;;20.40;47.99;100182.00;5040466;27;97562;-75
2023/03/23 00:26:42;;;;;;;1.13;0.70;;;;;;;20.41;47.65;100198.16;5038295;27;96945;-75
2023/03/23 00:29:18;;;;;;;2.22;0.80;;;;;;;20.42;47.41;100212.66;5034065;27;97831;-75
2023/03/23 00:31:48;;;;;;;1.08;0.60;;;;;;;20.41;47.79;100216.41;5046600;27;96992;-75
2023/03/23 00:34:19;;;;;;;1.25;0.80;;;;;;;20.42;47.63;100208.03;5032578;27;96871;-75
2023/03/23 00:36:47;;;;;;;1.08;0.52;;;;;;;20.41;47.79;100208.22;5035278;27;96894;-75
2023/03/23 00:39:12;;;;;;;1.17;0.70;;;;;;;20.40;47.94;100209.25;5016950;27;99478;-75
2023/03/23 00:41:39;;;;;;;2.38;0.73;;;;;;;20.41;47.85;100205.50;5064698;27;98770;-75
2023/03/23 00:44:04;;;;;;;1.63;0.70;;;;;;;20.44;47.50;100194.22;5050383;27;96748;-75
2023/03/23 00:46:30;;;;;;;1.30;0.60;;;;;;;20.44;47.63;100199.66;5043792;27;98349;-75
2023/03/23 00:48:56;;;;;;;1.58;0.63;;;;;;;20.45;47.68;100213.13;5050239;27;96955;-75
2023/03/23 00:51:23;;;;;;;1.00;0.60;;;;;;;20.46;47.89;100203.06;5051315;27;96629;-75
2023/03/23 00:53:49;;;;;;;2.05;0.70;;;;;;;20.47;47.76;100202.00;5037032;27;96907;-75
2023/03/23 00:56:15;;;;;;;0.98;0.50;;;;;;;20.45;47.54;100198.63;5053421;27;96932;-75
2023/03/23 00:58:41;;;;;;;1.33;0.73;;;;;;;20.43;47.50;100197.97;5033381;27;97939;-75
2023/03/23 01:01:07;;;;;;;0.70;0.60;;;;;;;20.44;47.59;100186.88;5043674;27;99263;-75
2023/03/23 01:03:34;;;;;;;0.82;0.60;;;;;;;20.44;47.54;100178.69;5051509;27;96968;-75
2023/03/23 01:06:12;;;;;;;2.55;0.65;;;;;;;20.44;47.90;100184.16;5031821;27;96669;-75
2023/03/23 01:08:45;;;;;;;0.68;0.50;;;;;;;20.44;47.78;100178.69;5056937;27;97166;-75
2023/03/23 01:11:16;;;;;;;2.08;0.82;;;;;;;20.44;47.54;100181.41;5048309;27;97222;-75
2023/03/23 01:13:42;;;;;;;1.48;0.75;;;;;;;20.44;47.84;100189.59;5044533;27;96715;-75
2023/03/23 01:16:08;;;;;;;1.30;0.70;;;;;;;20.46;47.62;100186.69;5017839;27;96495;-75
2023/03/23 01:18:34;;;;;;;1.17;0.57;;;;;;;20.44;47.41;100192.31;5035694;27;97188;-75
2023/03/23 01:21:12;;;;;;;0.88;0.55;;;;;;;20.44;47.77;100192.31;5068097;27;97625;-75
2023/03/23 01:23:38;;;;;;;1.42;0.70;;;;;;;20.44;47.47;100200.50;5049249;27;97216;-75
2023/03/23 01:26:10;;;;;;;0.77;0.57;;;;;;;20.43;47.45;100192.53;5065576;27;96900;-75
2023/03/23 01:28:36;;;;;;;1.08;0.68;;;;;;;20.43;47.55;100163.38;5032868;27;99920;-75
2023/03/23 01:31:07;;;;;;;1.40;0.70;;;;;;;20.44;47.98;100153.31;5036144;27;97519;-75
2023/03/23 01:33:34;;;;;;;1.08;0.60;;;;;;;20.43;47.39;100130.63;5053369;27;97202;-75
2023/03/23 01:36:06;;;;;;;1.58;0.65;;;;;;;20.44;47.63;100129.59;5034926;27;96775;-75
2023/03/23 01:38:34;;;;;;;1.05;0.60;;;;;;;20.45;47.46;100134.00;5055195;27;97234;-75
2023/03/23 01:41:00;;;;;;;1.38;0.60;;;;;;;20.48;47.74;100120.00;5039244;27;98874;-75
2023/03/23 01:43:26;;;;;;;1.40;0.70;;;;;;;20.50;47.54;100108.91;5038200;27;96987;-75
2023/03/23 01:45:52;;;;;;;1.05;0.70;;;;;;;20.48;47.46;100110.97;5032829;27;96947;-75
2023/03/23 01:48:23;;;;;;;0.90;0.57;;;;;;;20.49;47.77;100118.13;5022325;27;99723;-75
2023/03/23 01:50:57;;;;;;;0.95;0.60;;;;;;;20.50;47.69;100120.66;5038021;27;96731;-75
2023/03/23 01:53:28;;;;;;;1.15;0.60;;;;;;;20.48;47.64;100111.81;5037421;27;97264;-75
2023/03/23 01:55:57;;;;;;;1.58;0.63;;;;;;;20.46;47.53;100115.78;5039457;27;96934;-75
2023/03/23 01:58:27;;;;;;;1.08;0.63;;;;;;;20.45;47.94;100114.91;5055298;27;97462;-75
2023/03/23 02:00:58;;;;;;;0.60;0.50;;;;;;;20.47;47.44;100125.66;5039375;27;97240;-75
2023/03/23 02:03:25;;;;;;;1.05;0.60;;;;;;;20.46;47.83;100127.53;5035444;27;97059;-75
2023/03/23 02:05:51;;;;;;;0.63;0.50;;;;;;;20.48;47.76;100120.00;5027686;27;97138;-75
2023/03/23 02:08:32;;;;;;;1.33;0.50;;;;;;;20.48;47.56;100111.81;5053261;27;100521;-75
2023/03/23 02:10:59;;;;;;;0.88;0.50;;;;;;;20.46;47.68;100102.97;5035524;27;99540;-75
2023/03/23 02:13:27;;;;;;;1.08;0.60;;;;;;;20.48;47.93;100100.06;5039029;27;97244;-75
2023/03/23 02:16:34;;;;;;;1.55;0.80;;;;;;;20.49;47.67;100082.66;5037811;27;97413;-75
2023/03/23 02:19:37;;;;;;;1.10;0.70;;;;;;;20.48;47.58;100084.53;5033474;27;97313;-75
2023/03/23 02:22:29;;;;;;;1.60;0.60;;;;;;;20.44;47.91;100085.97;5054233;27;97326;-75
2023/03/23 02:25:06;;;;;;;0.95;0.70;;;;;;;20.43;47.64;100075.25;5039049;27;96746;-75
2023/03/23 02:28:02;;;;;;;1.13;0.55;;;;;;;20.45;47.49;100084.06;5053400;27;97356;-75
2023/03/23 02:31:01;;;;;;;0.93;0.55;;;;;;;20.45;47.68;100062.25;5052527;27;100060;-75
2023/03/23 02:34:05;;;;;;;0.85;0.50;;;;;;;20.46;47.75;100063.94;5037343;27;99971;-75
2023/03/23 02:36:38;;;;;;;0.95;0.70;;;;;;;20.45;47.92;100070.44;5052558;27;97004;-75
2023/03/23 02:39:18;;;;;;;1.10;0.70;;;;;;;20.46;47.65;100072.97;5051843;27;96744;-75
2023/03/23 02:41:58;;;;;;;0.68;0.47;;;;;;;20.46;48.00;100072.13;5038084;27;99697;-75
2023/03/23 02:44:29;;;;;;;0.88;0.40;;;;;;;20.46;47.77;100072.13;5035084;27;99937;-75
2023/03/23 02:46:59;;;;;;;0.90;0.50;;;;;;;20.45;47.58;100071.28;5034700;27;96869;-75
2023/03/23 02:49:27;;;;;;;0.70;0.50;;;;;;;20.43;47.59;100076.09;5056152;27;96806;-75
2023/03/23 02:51:56;;;;;;;0.77;0.57;;;;;;;20.44;47.63;100071.47;5043128;27;97079;-75
2023/03/23 02:54:25;;;;;;;1.10;0.63;;;;;;;20.44;47.73;100066.88;5033786;27;99073;-75
2023/03/23 02:56:53;;;;;;;1.70;0.50;;;;;;;20.46;47.69;100062.06;5031942;27;97212;-75
2023/03/23 02:59:24;;;;;;;0.70;0.50;;;;;;;20.50;47.68;100065.25;5053046;27;96929;-75
2023/03/23 03:02:24;;;;;;;1.65;0.70;;;;;;;20.48;47.41;100075.50;5050316;27;96783;-75
2023/03/23 03:05:09;;;;;;;0.60;0.50;;;;;;;20.46;47.57;100072.13;5051369;27;96685;-75
2023/03/23 03:07:54;;;;;;;0.57;0.40;;;;;;;20.48;47.84;100072.78;5054783;27;97135;-75
2023/03/23 03:10:34;;;;;;;0.98;0.43;;;;;;;20.49;47.60;100075.31;5034008;27;96600;-75
2023/03/23 03:13:25;;;;;;;1.00;0.50;;;;;;;20.50;47.47;100070.72;5032853;27;97083;-75
2023/03/23 03:16:24;;;;;;;0.65;0.50;;;;;;;20.46;47.56;100066.66;5037396;27;96683;-75
2023/03/23 03:18:59;;;;;;;0.50;0.40;;;;;;;20.45;47.81;100076.75;5009711;27;96962;-75
2023/03/23 03:21:28;;;;;;;0.93;0.50;;;;;;;20.45;47.75;100075.91;5035838;27;96849;-75
2023/03/23 03:24:00;;;;;;;0.50;0.40;;;;;;;20.46;47.56;100077.59;5030977;27;96757;-75
2023/03/23 03:26:28;;;;;;;0.47;0.30;;;;;;;20.44;47.65;100085.13;5032876;27;97336;-75
2023/03/23 03:28:59;;;;;;;0.52;0.52;;;;;;;20.44;47.69;100075.03;5036361;27;96854;-75
2023/03/23 03:31:39;;;;;;;1.00;0.68;;;;;;;20.44;47.96;100069.59;5050271;27;96905;-75
2023/03/23 03:34:05;;;;;;;0.95;0.68;;;;;;;20.44;47.83;100072.31;5036172;27;96802;-75
2023/03/23 03:36:37;;;;;;;0.85;0.45;;;;;;;20.43;47.63;100075.25;5048069;27;97563;-75
2023/03/23 03:39:09;;;;;;;0.95;0.40;;;;;;;20.42;47.68;100079.84;5052498;27;96741;-75
2023/03/23 03:41:37;;;;;;;1.05;0.43;;;;;;;20.44;47.79;100077.78;5033823;27;97114;-75
2023/03/23 03:44:05;;;;;;;0.73;0.63;;;;;;;20.42;47.55;100076.28;5054451;27;99054;-75
2023/03/23 03:46:31;;;;;;;0.75;0.50;;;;;;;20.42;47.70;100079.84;5054061;27;97759;-75
2023/03/23 03:48:58;;;;;;;0.70;0.40;;;;;;;20.43;47.86;100075.25;5050112;27;96810;-75
2023/03/23 03:51:25;;;;;;;0.75;0.50;;;;;;;20.44;47.95;100080.50;5041328;27;96910;-75
2023/03/23 03:53:52;;;;;;;0.77;0.47;;;;;;;20.42;47.58;100079.84;5036769;27;97497;-75
2023/03/23 03:56:19;;;;;;;1.05;0.50;;;;;;;20.45;47.68;100082.19;5034866;27;98563;-75
2023/03/23 03:58:53;;;;;;;0.40;0.40;;;;;;;20.47;47.70;100080.13;5036890;27;96940;-75
2023/03/23 04:01:34;;;;;;;1.00;0.50;;;;;;;20.50;47.74;100084.34;5036253;27;97232;-75
2023/03/23 04:04:00;;;;;;;0.60;0.50;;;;;;;20.47;47.89;100087.47;5037102;27;97998;-75
2023/03/23 04:06:30;;;;;;;0.50;0.30;;;;;;;20.49;47.89;100078.03;5051652;27;96728;-75
2023/03/23 04:08:58;;;;;;;0.82;0.50;;;;;;;20.50;47.89;100087.06;5032710;27;96780;-75
2023/03/23 04:11:25;;;;;;;1.00;0.50;;;;;;;20.49;47.82;100085.38;5034929;27;96920;-75
2023/03/23 04:13:53;;;;;;;0.95;0.60;;;;;;;20.49;47.82;100093.56;5053975;27;97874;-75
2023/03/23 04:16:21;;;;;;;0.77;0.50;;;;;;;20.46;47.42;100094.78;5051890;27;97429;-75
2023/03/23 04:18:47;;;;;;;0.60;0.60;;;;;;;20.44;47.82;100094.13;5036709;27;97274;-75
2023/03/23 04:21:16;;;;;;;0.80;0.50;;;;;;;20.43;47.98;100100.63;5035124;27;96905;-75
2023/03/23 04:23:43;;;;;;;0.90;0.50;;;;;;;20.45;47.77;100092.25;5018915;27;99889;-75
2023/03/23 04:26:12;;;;;;;1.30;0.50;;;;;;;20.46;48.09;100092.06;5048974;27;96648;-75
2023/03/23 04:28:40;;;;;;;1.30;0.55;;;;;;;20.46;47.58;100097.53;5036766;27;96927;-75
2023/03/23 04:31:44;;;;;;;0.82;0.57;;;;;;;20.45;47.43;100095.00;5059440;27;96900;-75
2023/03/23 04:34:32;;;;;;;0.70;0.50;;;;;;;20.42;47.56;100106.28;5042968;27;100021;-75
2023/03/23 04:36:58;;;;;;;0.70;0.52;;;;;;;20.41;47.71;100104.59;5064283;27;99863;-75
2023/03/23 04:39:28;;;;;;;0.85;0.40;;;;;;;20.42;47.96;100109.00;5037817;27;96635;-75
2023/03/23 04:41:55;;;;;;;1.70;0.50;;;;;;;20.42;47.68;100106.28;5031532;27;96817;-75
2023/03/23 04:44:25;;;;;;;0.60;0.43;;;;;;;20.45;47.69;100114.06;5032869;27;100849;-75
2023/03/23 04:47:04;;;;;;;0.88;0.45;;;;;;;20.44;47.71;100121.41;5051637;27;98470;-75
2023/03/23 04:49:35;;;;;;;0.50;0.40;;;;;;;20.43;48.02;100121.59;5037313;27;96928;-75
2023/03/23 04:52:11;;;;;;;0.73;0.45;;;;;;;20.43;47.65;100127.91;5037589;27;96701;-75
2023/03/23 04:54:42;;;;;;;0.88;0.50;;;;;;;20.44;47.77;100115.13;5035719;27;98063;-75
2023/03/23 04:57:08;;;;;;;1.15;0.50;;;;;;;20.42;47.81;100123.47;5024966;27;96885;-75
2023/03/23 04:59:38;;;;;;;0.70;0.50;;;;;;;20.46;47.49;100118.50;5034292;27;96757;-75
2023/03/23 05:02:12;;;;;;;0.63;0.40;;;;;;;20.44;47.78;100115.13;5036722;27;97307;-75
2023/03/23 05:04:40;;;;;;;0.90;0.68;;;;;;;20.43;47.97;100119.72;5012090;27;98235;-75
2023/03/23 05:07:13;;;;;;;1.63;0.57;;;;;;;20.42;47.95;100120.75;5035596;27;100071;-75
2023/03/23 05:09:48;;;;;;;0.60;0.38;;;;;;;20.43;47.81;100127.06;5055111;27;98157;-75
2023/03/23 05:12:15;;;;;;;0.73;0.43;;;;;;;20.41;47.86;100115.50;5034798;27;97477;-75
2023/03/23 05:14:51;;;;;;;0.60;0.47;;;;;;;20.43;47.87;100116.16;5053832;27;97614;-75
2023/03/23 05:17:19;;;;;;;0.60;0.40;;;;;;;20.44;47.83;100121.41;5037570;27;96689;-75
2023/03/23 05:19:49;;;;;;;0.70;0.40;;;;;;;20.45;47.90;100123.09;5056642;27;96858;-75
2023/03/23 05:22:32;;;;;;;0.50;0.40;;;;;;;20.44;47.54;100121.41;5058519;27;96635;-75
2023/03/23 05:25:02;;;;;;;0.88;0.60;;;;;;;20.44;47.98;100126.03;5037280;27;96875;-75
2023/03/23 05:27:30;;;;;;;1.10;0.52;;;;;;;20.44;47.83;100121.41;5050817;27;98305;-75
2023/03/23 05:30:00;;;;;;;0.93;0.50;;;;;;;20.44;47.82;100129.59;5056759;27;97127;-75
2023/03/23 05:32:30;;;;;;;1.50;0.60;;;;;;;20.47;47.54;100120.19;5054242;27;97555;-75
2023/03/23 05:35:03;;;;;;;0.60;0.50;;;;;;;20.49;47.66;100123.56;5055306;27;97352;-75
2023/03/23 05:37:33;;;;;;;0.55;0.40;;;;;;;20.48;47.81;100120.00;5050905;27;97425;-75
2023/03/23 05:40:07;;;;;;;0.98;0.43;;;;;;;20.49;47.68;100129.03;5055658;27;97553;-75
2023/03/23 05:42:42;;;;;;;0.75;0.60;;;;;;;20.51;47.63;100132.41;5031609;27;96903;-75
2023/03/23 05:45:13;;;;;;;0.75;0.32;;;;;;;20.51;47.62;100129.69;5035615;27;98997;-75
2023/03/23 05:47:40;;;;;;;0.73;0.43;;;;;;;20.50;47.62;100137.03;5038130;27;96706;-75
2023/03/23 05:50:12;;;;;;;0.70;0.43;;;;;;;20.48;47.71;100139.09;5037903;27;96973;-75
2023/03/23 05:52:38;;;;;;;1.33;0.45;;;;;;;20.48;47.57;100133.63;5051691;27;97216;-75
2023/03/23 05:55:08;;;;;;;0.93;0.50;;;;;;;20.49;47.64;100139.94;5037233;27;98545;-75
2023/03/23 05:57:36;;;;;;;1.17;0.52;;;;;;;20.47;47.93;100125.66;5037781;27;100003;-75
2023/03/23 06:00:23;;;;;;;0.63;0.40;;;;;;;20.44;47.86;100131.47;5064726;27;96943;-75
2023/03/23 06:02:56;;;;;;;0.45;0.35;;;;;;;20.45;47.59;100136.75;5060350;27;96817;-75
2023/03/23 06:05:30;;;;;;;0.73;0.40;;;;;;;20.45;47.63;100144.06;5038894;27;97180;-75
2023/03/23 06:07:57;;;;;;;0.70;0.40;;;;;;;20.44;47.84;100131.47;5053565;27;100727;-75
2023/03/23 06:10:23;;;;;;;0.88;0.50;;;;;;;20.44;47.51;100143.22;5055615;27;96677;-75
2023/03/23 06:12:59;;;;;;;1.13;0.50;;;;;;;20.46;47.84;100148.50;5052142;27;96941;-75
2023/03/23 06:15:47;;;;;;;1.00;0.60;;;;;;;20.47;47.86;100144.72;5047973;27;99042;-75
2023/03/23 06:18:33;;;;;;;0.68;0.40;;;;;;;20.47;47.89;100153.75;5041148;27;98540;-75
2023/03/23 06:21:19;;;;;;;0.77;0.50;;;;;;;20.45;47.79;100146.81;5061865;27;97440;-75
2023/03/23 06:23:52;;;;;;;0.70;0.30;;;;;;;20.43;47.55;100155.19;5039332;27;97264;-75
2023/03/23 06:26:20;;;;;;;0.60;0.40;;;;;;;20.45;47.56;100157.72;5035516;27;99289;-75
2023/03/23 06:28:51;;;;;;;0.50;0.40;;;;;;;20.45;47.65;100158.56;5048148;27;98531;-75
2023/03/23 06:31:17;;;;;;;0.40;0.28;;;;;;;20.45;47.78;100165.91;5072297;27;96866;-75
2023/03/23 06:33:43;;;;;;;0.65;0.40;;;;;;;20.46;47.63;100175.78;5036181;27;96756;-75
2023/03/23 06:36:26;;;;;;;0.57;0.45;;;;;;;20.44;47.89;100184.16;5069879;27;97949;-75
2023/03/23 06:39:15;;;;;;;0.50;0.40;;;;;;;20.44;47.60;100191.47;5041675;27;98175;-75
2023/03/23 06:42:00;;;;;;;0.93;0.40;;;;;;;20.44;47.66;100196.94;5055209;27;96797;-75
2023/03/23 06:44:29;;;;;;;0.65;0.50;;;;;;;20.43;47.70;100197.97;5039214;27;96881;-75
2023/03/23 06:46:55;;;;;;;0.65;0.40;;;;;;;20.42;47.68;100199.00;5050032;27;99293;-75
2023/03/23 06:49:25;;;;;;;0.57;0.40;;;;;;;20.42;47.74;100194.41;5036745;27;99732;-75
2023/03/23 06:52:01;;;;;;;0.60;0.35;;;;;;;20.43;47.73;100197.97;5040290;27;97005;-75
2023/03/23 06:54:28;;;;;;;1.05;0.50;;;;;;;20.45;47.68;100198.63;5035426;27;96880;-75
2023/03/23 06:56:53;;;;;;;0.60;0.40;;;;;;;20.47;47.64;100202.00;5044585;27;100256;-76
2023/03/23 06:59:19;;;;;;;0.80;0.40;;;;;;;20.47;47.86;100210.19;5035172;27;96823;-75
2023/03/23 07:01:46;;;;;;;0.65;0.45;;;;;;;20.44;47.73;100197.78;5036185;27;96804;-75
2023/03/23 07:04:13;;;;;;;1.15;0.50;;;;;;;20.43;47.64;100206.16;5030499;27;96816;-76
2023/03/23 07:06:47;;;;;;;0.40;0.30;;;;;;;20.44;47.82;100205.13;5037699;27;98249;-75
2023/03/23 07:09:13;;;;;;;0.88;0.45;;;;;;;20.45;47.85;100206.81;5042477;27;98013;-76
2023/03/23 07:11:41;;;;;;;0.73;0.43;;;;;;;20.45;47.60;100212.28;5039457;27;96941;-76
2023/03/23 07:14:15;;;;;;;0.90;0.50;;;;;;;20.43;47.84;100217.06;5038787;27;96810;-75
2023/03/23 07:16:40;;;;;;;1.30;0.60;;;;;;;20.45;47.76;100212.28;5019687;27;97670;-76
2023/03/23 07:19:06;;;;;;;0.57;0.40;;;;;;;20.44;47.97;100203.25;5036773;27;97450;-76
2023/03/23 07:21:32;;;;;;;0.60;0.40;;;;;;;20.42;47.56;100215.38;5030532;27;96879;-75
2023/03/23 07:23:57;;;;;;;1.15;0.50;;;;;;;20.41;47.78;100219.13;5035205;27;97882;-76
2023/03/23 07:26:37;;;;;;;1.38;0.50;;;;;;;20.38;47.87;100217.59;5039065;27;97889;-75
2023/03/23 07:29:03;;;;;;;0.93;0.43;;;;;;;20.38;47.76;100224.94;5034324;27;99232;-75
2023/03/23 07:31:36;;;;;;;0.88;0.50;;;;;;;20.37;48.07;100239.59;5036691;27;96914;-75
2023/03/23 07:34:02;;;;;;;0.85;0.40;;;;;;;20.35;48.08;100238.94;5049291;27;97261;-75
2023/03/23 07:36:57;;;;;;;1.60;0.63;;;;;;;20.34;48.07;100229.91;5036390;27;98276;-75
2023/03/23 07:39:27;;;;;;;1.10;0.63;;;;;;;20.37;47.99;100231.41;5034816;27;98039;-75
2023/03/23 07:41:55;;;;;;;0.55;0.40;;;;;;;20.37;48.19;100234.16;5037572;27;96726;-75
2023/03/23 07:44:34;;;;;;;0.50;0.30;;;;;;;20.37;47.77;100235.00;5037406;27;96896;-76
2023/03/23 07:47:05;;;;;;;0.80;0.40;;;;;;;20.35;48.10;100228.88;5024412;27;99386;-76
2023/03/23 07:49:32;;;;;;;2.72;0.68;;;;;;;20.36;48.23;100237.91;5039588;27;98309;-75
2023/03/23 07:52:12;;;;;;;0.65;0.50;;;;;;;20.36;48.06;100238.75;5060442;27;96676;-76
2023/03/23 07:54:39;;;;;;;2.35;0.50;;;;;;;20.36;48.15;100232.44;5057793;27;96662;-76
2023/03/23 07:57:14;;;;;;;0.60;0.45;;;;;;;20.35;48.00;100242.50;5026517;27;99629;-76
2023/03/23 07:59:46;;;;;;;0.45;0.40;;;;;;;20.37;48.07;100239.59;5057384;27;98920;-75
2023/03/23 08:02:11;;;;;;;0.40;0.30;;;;;;;20.38;47.83;100238.56;5057415;27;96750;-75
2023/03/23 08:05:00;;;;;;;0.82;0.40;;;;;;;20.38;47.98;100261.22;5048638;27;96833;-75
2023/03/23 08:07:44;;;;;;;2.43;0.50;;;;;;;20.37;47.96;100258.69;5056422;27;97729;-75
2023/03/23 08:10:17;;;;;;;0.65;0.32;;;;;;;20.36;48.14;100246.94;5040420;27;97220;-75
2023/03/23 08:13:21;;;;;;;1.03;0.40;;;;;;;20.37;48.09;100262.28;5032896;27;97246;-75
2023/03/23 08:16:25;;;;;;;2.03;0.43;;;;;;;20.35;47.94;100269.78;5038675;27;96959;-75
2023/03/23 08:19:02;;;;;;;0.90;0.63;;;;;;;20.36;48.17;100273.38;5056369;27;100565;-75
2023/03/23 08:21:50;;;;;;;0.80;0.60;;;;;;;20.36;47.82;100265.19;5033412;27;100645;-75
2023/03/23 08:24:34;;;;;;;1.45;0.40;;;;;;;20.36;47.96;100271.47;5055694;27;96760;-76
2023/03/23 08:27:08;;;;;;;0.80;0.50;;;;;;;20.36;47.94;100270.63;5041412;27;96717;-75
2023/03/23 08:29:38;;;;;;;0.52;0.40;;;;;;;20.34;48.00;100272.69;5044007;27;97241;-75
2023/03/23 08:32:14;;;;;;;0.70;0.32;;;;;;;20.35;48.19;100290.75;5058330;27;98401;-75
2023/03/23 08:34:53;;;;;;;1.17;0.50;;;;;;;20.33;47.97;100281.91;5043808;27;96733;-75
2023/03/23 08:37:41;;;;;;;1.13;0.40;;;;;;;20.31;48.11;100280.22;5048617;27;96630;-75
2023/03/23 08:40:19;;;;;;;1.67;0.60;;;;;;;20.30;48.16;100286.72;5045986;27;99578;-75
2023/03/23 08:43:05;;;;;;;0.57;0.40;;;;;;;20.31;47.98;100280.22;5008474;27;96977;-75
2023/03/23 08:46:10;;;;;;;2.13;0.60;;;;;;;20.31;48.47;100290.28;5038710;27;97015;-75
2023/03/23 08:48:51;;;;;;;0.80;0.60;;;;;;;20.31;48.06;100302.03;5043578;27;96691;-75
2023/03/23 08:51:37;;;;;;;0.95;0.47;;;;;;;20.30;48.32;100303.06;5031476;27;97859;-75
2023/03/23 08:54:11;;;;;;;0.52;0.38;;;;;;;20.33;48.24;100304.59;5035444;27;97131;-75
2023/03/23 08:56:48;;;;;;;0.68;0.40;;;;;;;20.34;48.23;100276.28;5030179;27;96779;-76
2023/03/23 08:59:29;;;;;;;0.77;0.50;;;;;;;20.35;48.09;100285.31;5045731;27;97743;-75
2023/03/23 09:02:18;;;;;;;1.25;0.50;;;;;;;20.37;48.02;100299.59;5025783;27;98938;-75
2023/03/23 09:05:04;;;;;;;0.60;0.40;;;;;;;20.39;47.91;100298.41;5032187;27;99447;-75
2023/03/23 09:07:45;;;;;;;0.90;0.50;;;;;;;20.40;48.25;100302.00;5029823;27;96649;-75
2023/03/23 09:10:12;;;;;;;0.90;0.50;;;;;;;20.41;48.25;100303.69;5023744;27;99063;-75
2023/03/23 09:12:38;;;;;;;1.17;0.40;;;;;;;20.44;48.03;100297.84;5053272;27;96865;-76
2023/03/23 09:15:08;;;;;;;0.47;0.40;;;;;;;20.42;48.06;100306.22;5039700;27;97269;-75
2023/03/23 09:17:38;;;;;;;0.80;0.40;;;;;;;20.41;48.14;100300.97;5037417;27;97110;-75
2023/03/23 09:20:11;;;;;;;1.02;0.45;;;;;;;20.42;47.91;100289.00;5043344;27;96999;-75
2023/03/23 09:22:39;;;;;;;0.80;0.47;;;;;;;20.42;47.72;100289.88;5058853;27;97375;-75
2023/03/23 09:25:06;;;;;;;0.90;0.38;;;;;;;20.43;47.87;100297.00;5059659;27;98452;-75
2023/03/23 09:27:31;;;;;;;1.42;0.40;;;;;;;20.49;47.74;100287.22;5058557;27;96793;-75
2023/03/23 09:29:57;;;;;;;0.57;0.40;;;;;;;20.47;47.93;100279.25;5041609;27;96853;-75
2023/03/23 09:32:22;;;;;;;1.33;0.43;;;;;;;20.47;47.88;100275.66;5058980;27;97524;-75
2023/03/23 09:34:48;;;;;;;1.75;0.38;;;;;;;20.46;47.92;100276.69;5058942;27;97724;-75
2023/03/23 09:37:14;;;;;;;0.55;0.40;;;;;;;20.44;47.92;100276.88;5041716;27;96829;-75
2023/03/23 09:39:39;;;;;;;1.02;0.60;;;;;;;20.44;47.95;100289.69;5066487;27;96861;-75
2023/03/23 09:42:44;;;;;;;1.33;0.40;;;;;;;20.44;47.86;100303.31;5038736;27;97835;-75
2023/03/23 09:45:20;;;;;;;0.52;0.40;;;;;;;20.45;47.78;100302.28;4982564;28;96730;-75
2023/03/23 09:47:49;;;;;;;0.52;0.30;;;;;;;20.44;47.82;100314.22;5000633;28;96541;-75
2023/03/23 09:50:19;;;;;;;0.60;0.50;;;;;;;20.42;47.97;100319.88;5038699;27;96911;-76
2023/03/23 09:53:01;;;;;;;1.48;0.50;;;;;;;20.44;48.14;100315.06;5041129;27;98583;-75
2023/03/23 09:55:28;;;;;;;1.73;0.55;;;;;;;20.42;47.96;100317.13;5041242;27;97332;-75
2023/03/23 09:58:18;;;;;;;0.75;0.32;;;;;;;20.42;47.77;100316.28;5041834;27;96667;-75
2023/03/23 10:00:52;;;;;;;0.88;0.35;;;;;;;20.40;47.79;100332.00;5048791;27;96873;-75
2023/03/23 10:03:37;;;;;;;1.20;0.40;;;;;;;20.40;47.74;100327.38;5074834;27;97464;-75
2023/03/23 10:06:03;;;;;;;1.33;0.40;;;;;;;20.40;47.93;100335.56;5057927;27;97634;-75
2023/03/23 10:08:32;;;;;;;0.70;0.40;;;;;;;20.38;47.82;100334.03;5041779;27;96879;-75
2023/03/23 10:11:03;;;;;;;1.23;0.50;;;;;;;20.39;47.95;100333.00;5041086;27;97076;-75
2023/03/23 10:13:48;;;;;;;0.80;0.45;;;;;;;20.38;47.61;100334.88;5046921;27;97193;-75
2023/03/23 10:16:19;;;;;;;1.42;0.47;;;;;;;20.37;48.02;100338.63;5055650;27;96914;-75
2023/03/23 10:19:00;;;;;;;1.02;0.35;;;;;;;20.38;47.75;100337.59;5034006;27;96769;-75
2023/03/23 10:21:29;;;;;;;0.73;0.40;;;;;;;20.39;48.21;100346.63;5019469;27;97248;-75
2023/03/23 10:23:59;;;;;;;0.52;0.35;;;;;;;20.40;47.98;100340.19;5043806;27;97070;-75
2023/03/23 10:26:30;;;;;;;2.42;0.50;;;;;;;20.42;48.11;100335.38;5018794;27;100571;-75
2023/03/23 10:29:31;;;;;;;0.65;0.30;;;;;;;20.43;47.86;100331.63;5035270;27;97156;-75
2023/03/23 10:32:13;;;;;;;0.63;0.40;;;;;;;20.43;48.16;100334.34;5012995;27;96817;-75
2023/03/23 10:35:02;;;;;;;0.80;0.40;;;;;;;20.44;47.83;100352.41;5049280;27;97592;-75
2023/03/23 10:37:33;;;;;;;0.85;0.30;;;;;;;20.43;48.03;100357.00;5057161;27;97159;-75
2023/03/23 10:40:03;;;;;;;0.60;0.30;;;;;;;20.45;47.91;100356.84;5054135;27;96907;-75
2023/03/23 10:42:31;;;;;;;0.88;0.50;;;;;;;20.45;47.89;100354.09;5051545;27;96986;-75
2023/03/23 10:45:18;;;;;;;0.90;0.50;;;;;;;20.47;47.56;100366.53;5025402;27;96743;-75
2023/03/23 10:48:14;;;;;;;0.50;0.47;;;;;;;20.49;47.71;100358.16;5045676;27;97554;-74
2023/03/23 10:50:43;;;;;;;0.90;0.50;;;;;;;20.50;48.04;100371.63;5043204;27;97115;-75
2023/03/23 10:53:19;;;;;;;0.60;0.30;;;;;;;20.49;47.66;100372.66;5036891;27;96714;-74
2023/03/23 10:55:44;;;;;;;2.13;0.40;;;;;;;20.51;47.71;100367.00;5044416;27;98914;-75
2023/03/23 10:58:24;;;;;;;1.83;0.57;;;;;;;20.51;47.79;100367.00;5047122;27;96764;-75
2023/03/23 11:00:50;;;;;;;0.90;0.40;;;;;;;20.51;47.86;100372.47;5051549;27;96985;-75
2023/03/23 11:03:17;;;;;;;1.10;0.60;;;;;;;20.51;47.79;100361.53;5054002;27;96814;-74
2023/03/23 11:05:50;;;;;;;1.88;0.38;;;;;;;20.50;47.94;100360.69;5033557;27;97294;-75
2023/03/23 11:08:22;;;;;;;1.55;0.38;;;;;;;20.49;47.73;100366.34;5036274;27;98149;-74
2023/03/23 11:10:49;;;;;;;1.02;0.40;;;;;;;20.48;47.57;100357.31;5052439;27;97457;-74
2023/03/23 11:13:16;;;;;;;1.20;0.47;;;;;;;20.49;47.68;100360.88;5036688;27;96698;-74
2023/03/23 11:15:47;;;;;;;1.08;0.60;;;;;;;20.46;47.77;100359.38;5033932;27;97524;-75
2023/03/23 11:18:22;;;;;;;0.85;0.60;;;;;;;20.46;47.72;100344.88;5046112;27;97160;-74
2023/03/23 11:20:54;;;;;;;0.70;0.30;;;;;;;20.51;47.87;100358.81;5069840;27;97449;-74
2023/03/23 11:23:22;;;;;;;1.85;0.50;;;;;;;20.51;47.61;100353.38;5043309;27;97138;-74
2023/03/23 11:26:37;;;;;;;0.70;0.45;;;;;;;20.49;47.88;100349.97;5043263;27;97338;-75
2023/03/23 11:29:17;;;;;;;1.33;0.57;;;;;;;20.51;47.88;100361.53;5028212;27;96679;-74
2023/03/23 11:31:53;;;;;;;0.77;0.50;;;;;;;20.52;47.67;100360.50;5016426;27;97361;-74
2023/03/23 11:34:22;;;;;;;2.50;0.52;;;;;;;20.52;47.59;100363.25;5037161;27;97019;-75
2023/03/23 11:37:25;;;;;;;1.15;0.50;;;;;;;20.50;48.04;100366.16;5046124;27;97635;-74
2023/03/23 11:40:18;;;;;;;1.23;0.50;;;;;;;20.51;47.94;100364.28;5042915;27;96795;-75
2023/03/23 11:42:48;;;;;;;1.60;0.40;;;;;;;20.53;47.80;100371.25;5036318;27;97278;-74
2023/03/23 11:45:30;;;;;;;1.88;0.50;;;;;;;20.52;47.75;100368.69;5047782;27;97440;-74
2023/03/23 11:48:06;;;;;;;1.70;0.60;;;;;;;20.51;47.97;100376.03;5041661;27;96688;-75
2023/03/23 11:50:53;;;;;;;1.55;0.70;;;;;;;20.50;47.73;100365.31;5016384;27;96945;-75
2023/03/23 11:53:38;;;;;;;1.02;0.50;;;;;;;20.49;48.05;100372.66;5033925;27;96925;-74
2023/03/23 11:56:26;;;;;;;1.08;0.47;;;;;;;20.51;47.71;100372.47;5028241;27;97146;-75